sensor_id;sensor_type;location;lat;lon;timestamp;P1;durP1;ratioP1;P2;durP2;ratioP2
11711;SDS011;5912;51.034;6.984;2023-11-21T00:02:19;8.57;;;5.50;;
11711;SDS011;5912;51.034;6.984;2023-11-21T00:04:45;7.90;;;6.32;;
11711;SDS011;5912;51.034;6.984;2023-11-21T00:07:11;7.45;;;6.15;;
11711;SDS011;5912;51.034;6.984;2023-11-21T00:09:36;9.10;;;6.15;;
11711;SDS011;5912;51.034;6.984;2023-11-21T00:12:02;10.98;;;6.90;;
11711;SDS011;5912;51.034;6.984;2023-11-21T00:14:27;9.95;;;6.82;;
11711;SDS011;5912;51.034;6.984;2023-11-21T00:16:53;7.63;;;5.90;;
11711;SDS011;5912;51.034;6.984;2023-11-21T00:19:18;6.75;;;5.82;;
11711;SDS011;5912;51.034;6.984;2023-11-21T00:21:46;7.72;;;6.03;;
11711;SDS011;5912;51.034;6.984;2023-11-21T00:24:11;11.50;;;6.55;;
11711;SDS011;5912;51.034;6.984;2023-11-21T00:26:39;10.70;;;6.68;;
11711;SDS011;5912;51.034;6.984;2023-11-21T00:29:04;7.70;;;5.82;;
11711;SDS011;5912;51.034;6.984;2023-11-21T00:31:33;9.43;;;6.40;;
11711;SDS011;5912;51.034;6.984;2023-11-21T00:33:59;10.43;;;6.47;;
11711;SDS011;5912;51.034;6.984;2023-11-21T00:36:24;8.48;;;6.18;;
11711;SDS011;5912;51.034;6.984;2023-11-21T00:38:51;9.55;;;6.28;;
11711;SDS011;5912;51.034;6.984;2023-11-21T00:41:16;10.95;;;6.72;;
11711;SDS011;5912;51.034;6.984;2023-11-21T00:43:41;7.95;;;5.95;;
11711;SDS011;5912;51.034;6.984;2023-11-21T00:46:07;10.88;;;5.75;;
11711;SDS011;5912;51.034;6.984;2023-11-21T00:48:32;10.65;;;6.45;;
11711;SDS011;5912;51.034;6.984;2023-11-21T00:50:58;9.02;;;6.40;;
11711;SDS011;5912;51.034;6.984;2023-11-21T00:53:23;7.85;;;5.40;;
11711;SDS011;5912;51.034;6.984;2023-11-21T00:55:48;8.82;;;6.68;;
11711;SDS011;5912;51.034;6.984;2023-11-21T00:58:14;7.93;;;6.60;;
11711;SDS011;5912;51.034;6.984;2023-11-21T01:00:39;10.98;;;6.82;;
11711;SDS011;5912;51.034;6.984;2023-11-21T01:03:05;9.50;;;6.70;;
11711;SDS011;5912;51.034;6.984;2023-11-21T01:05:30;9.63;;;7.30;;
11711;SDS011;5912;51.034;6.984;2023-11-21T01:07:55;11.00;;;7.63;;
11711;SDS011;5912;51.034;6.984;2023-11-21T01:10:21;10.65;;;7.18;;
11711;SDS011;5912;51.034;6.984;2023-11-21T01:12:46;10.37;;;7.60;;
11711;SDS011;5912;51.034;6.984;2023-11-21T01:15:12;11.33;;;7.97;;
11711;SDS011;5912;51.034;6.984;2023-11-21T01:17:37;11.55;;;7.82;;
11711;SDS011;5912;51.034;6.984;2023-11-21T01:20:03;13.65;;;7.43;;
11711;SDS011;5912;51.034;6.984;2023-11-21T01:22:35;11.37;;;7.80;;
11711;SDS011;5912;51.034;6.984;2023-11-21T01:25:01;10.60;;;7.90;;
11711;SDS011;5912;51.034;6.984;2023-11-21T01:27:29;11.18;;;7.75;;
11711;SDS011;5912;51.034;6.984;2023-11-21T01:29:54;11.95;;;7.53;;
11711;SDS011;5912;51.034;6.984;2023-11-21T01:32:20;15.70;;;8.03;;
11711;SDS011;5912;51.034;6.984;2023-11-21T01:34:45;9.88;;;7.50;;
11711;SDS011;5912;51.034;6.984;2023-11-21T01:37:10;9.20;;;7.00;;
11711;SDS011;5912;51.034;6.984;2023-11-21T01:39:37;9.77;;;6.87;;
11711;SDS011;5912;51.034;6.984;2023-11-21T01:42:04;12.32;;;7.45;;
11711;SDS011;5912;51.034;6.984;2023-11-21T01:44:30;9.13;;;7.82;;
11711;SDS011;5912;51.034;6.984;2023-11-21T01:46:55;11.65;;;8.73;;
11711;SDS011;5912;51.034;6.984;2023-11-21T01:49:22;11.10;;;8.13;;
11711;SDS011;5912;51.034;6.984;2023-11-21T01:51:48;13.73;;;8.32;;
11711;SDS011;5912;51.034;6.984;2023-11-21T01:54:16;11.68;;;7.32;;
11711;SDS011;5912;51.034;6.984;2023-11-21T01:56:45;13.07;;;8.57;;
11711;SDS011;5912;51.034;6.984;2023-11-21T01:59:11;13.32;;;8.68;;
11711;SDS011;5912;51.034;6.984;2023-11-21T02:01:42;13.00;;;8.98;;
11711;SDS011;5912;51.034;6.984;2023-11-21T02:04:08;15.73;;;10.20;;
11711;SDS011;5912;51.034;6.984;2023-11-21T02:06:34;15.32;;;9.45;;
11711;SDS011;5912;51.034;6.984;2023-11-21T02:09:00;12.23;;;7.80;;
11711;SDS011;5912;51.034;6.984;2023-11-21T02:11:25;14.13;;;8.02;;
11711;SDS011;5912;51.034;6.984;2023-11-21T02:13:52;10.77;;;8.27;;
11711;SDS011;5912;51.034;6.984;2023-11-21T02:16:19;11.35;;;7.68;;
11711;SDS011;5912;51.034;6.984;2023-11-21T02:18:45;10.45;;;7.60;;
11711;SDS011;5912;51.034;6.984;2023-11-21T02:21:13;9.15;;;7.05;;
11711;SDS011;5912;51.034;6.984;2023-11-21T02:23:39;11.45;;;7.35;;
11711;SDS011;5912;51.034;6.984;2023-11-21T02:26:07;11.52;;;7.43;;
11711;SDS011;5912;51.034;6.984;2023-11-21T02:28:32;12.52;;;7.53;;
11711;SDS011;5912;51.034;6.984;2023-11-21T02:30:58;9.50;;;7.28;;
11711;SDS011;5912;51.034;6.984;2023-11-21T02:33:24;10.75;;;7.68;;
11711;SDS011;5912;51.034;6.984;2023-11-21T02:35:50;8.60;;;7.22;;
11711;SDS011;5912;51.034;6.984;2023-11-21T02:38:19;10.32;;;7.47;;
11711;SDS011;5912;51.034;6.984;2023-11-21T02:40:45;8.68;;;7.10;;
11711;SDS011;5912;51.034;6.984;2023-11-21T02:43:10;11.65;;;7.95;;
11711;SDS011;5912;51.034;6.984;2023-11-21T02:45:36;8.60;;;7.20;;
11711;SDS011;5912;51.034;6.984;2023-11-21T02:48:01;12.35;;;7.88;;
11711;SDS011;5912;51.034;6.984;2023-11-21T02:50:27;11.85;;;7.65;;
11711;SDS011;5912;51.034;6.984;2023-11-21T02:52:52;9.38;;;7.88;;
11711;SDS011;5912;51.034;6.984;2023-11-21T02:55:17;10.52;;;7.78;;
11711;SDS011;5912;51.034;6.984;2023-11-21T02:57:43;9.10;;;6.68;;
11711;SDS011;5912;51.034;6.984;2023-11-21T03:00:08;9.35;;;6.70;;
11711;SDS011;5912;51.034;6.984;2023-11-21T03:02:39;8.95;;;7.47;;
11711;SDS011;5912;51.034;6.984;2023-11-21T03:05:06;10.48;;;7.70;;
11711;SDS011;5912;51.034;6.984;2023-11-21T03:07:31;9.80;;;7.40;;
11711;SDS011;5912;51.034;6.984;2023-11-21T03:09:56;10.15;;;7.57;;
11711;SDS011;5912;51.034;6.984;2023-11-21T03:12:22;12.60;;;8.73;;
11711;SDS011;5912;51.034;6.984;2023-11-21T03:14:47;13.25;;;8.38;;
11711;SDS011;5912;51.034;6.984;2023-11-21T03:17:13;9.57;;;8.05;;
11711;SDS011;5912;51.034;6.984;2023-11-21T03:19:41;11.82;;;8.65;;
11711;SDS011;5912;51.034;6.984;2023-11-21T03:22:06;13.82;;;8.43;;
11711;SDS011;5912;51.034;6.984;2023-11-21T03:24:32;12.43;;;7.85;;
11711;SDS011;5912;51.034;6.984;2023-11-21T03:26:57;12.50;;;7.65;;
11711;SDS011;5912;51.034;6.984;2023-11-21T03:29:22;13.07;;;8.93;;
11711;SDS011;5912;51.034;6.984;2023-11-21T03:31:47;10.93;;;7.68;;
11711;SDS011;5912;51.034;6.984;2023-11-21T03:34:23;12.90;;;8.50;;
11711;SDS011;5912;51.034;6.984;2023-11-21T03:36:51;14.15;;;8.50;;
11711;SDS011;5912;51.034;6.984;2023-11-21T03:39:16;12.00;;;8.35;;
11711;SDS011;5912;51.034;6.984;2023-11-21T03:41:41;10.38;;;7.22;;
11711;SDS011;5912;51.034;6.984;2023-11-21T03:44:07;11.57;;;7.47;;
11711;SDS011;5912;51.034;6.984;2023-11-21T03:46:32;11.13;;;7.68;;
11711;SDS011;5912;51.034;6.984;2023-11-21T03:48:57;10.95;;;7.75;;
11711;SDS011;5912;51.034;6.984;2023-11-21T03:51:23;11.60;;;7.90;;
11711;SDS011;5912;51.034;6.984;2023-11-21T03:53:48;10.40;;;7.07;;
11711;SDS011;5912;51.034;6.984;2023-11-21T03:56:13;10.45;;;7.82;;
11711;SDS011;5912;51.034;6.984;2023-11-21T03:58:39;11.68;;;8.25;;
11711;SDS011;5912;51.034;6.984;2023-11-21T04:01:04;9.57;;;7.03;;
11711;SDS011;5912;51.034;6.984;2023-11-21T04:03:30;11.85;;;7.63;;
11711;SDS011;5912;51.034;6.984;2023-11-21T04:05:55;12.85;;;8.00;;
11711;SDS011;5912;51.034;6.984;2023-11-21T04:08:20;10.95;;;7.57;;
11711;SDS011;5912;51.034;6.984;2023-11-21T04:10:45;8.90;;;6.85;;
11711;SDS011;5912;51.034;6.984;2023-11-21T04:13:17;9.68;;;7.25;;
11711;SDS011;5912;51.034;6.984;2023-11-21T04:15:42;10.63;;;7.00;;
11711;SDS011;5912;51.034;6.984;2023-11-21T04:18:07;10.02;;;6.80;;
11711;SDS011;5912;51.034;6.984;2023-11-21T04:20:33;10.85;;;7.57;;
11711;SDS011;5912;51.034;6.984;2023-11-21T04:22:58;8.02;;;6.65;;
11711;SDS011;5912;51.034;6.984;2023-11-21T04:25:24;10.48;;;6.68;;
11711;SDS011;5912;51.034;6.984;2023-11-21T04:27:49;10.55;;;6.85;;
11711;SDS011;5912;51.034;6.984;2023-11-21T04:30:14;9.85;;;6.57;;
11711;SDS011;5912;51.034;6.984;2023-11-21T04:32:40;9.30;;;6.65;;
11711;SDS011;5912;51.034;6.984;2023-11-21T04:35:07;8.80;;;6.45;;
11711;SDS011;5912;51.034;6.984;2023-11-21T04:37:33;9.90;;;6.85;;
11711;SDS011;5912;51.034;6.984;2023-11-21T04:39:59;8.82;;;5.93;;
11711;SDS011;5912;51.034;6.984;2023-11-21T04:42:24;8.10;;;6.15;;
11711;SDS011;5912;51.034;6.984;2023-11-21T04:44:49;10.43;;;7.03;;
11711;SDS011;5912;51.034;6.984;2023-11-21T04:47:15;10.82;;;7.43;;
11711;SDS011;5912;51.034;6.984;2023-11-21T04:49:43;12.93;;;7.63;;
11711;SDS011;5912;51.034;6.984;2023-11-21T04:52:11;17.35;;;8.82;;
11711;SDS011;5912;51.034;6.984;2023-11-21T04:54:37;14.05;;;8.20;;
11711;SDS011;5912;51.034;6.984;2023-11-21T04:57:02;15.70;;;8.68;;
11711;SDS011;5912;51.034;6.984;2023-11-21T04:59:28;11.48;;;7.20;;
11711;SDS011;5912;51.034;6.984;2023-11-21T05:01:54;12.18;;;7.50;;
11711;SDS011;5912;51.034;6.984;2023-11-21T05:04:19;9.68;;;6.90;;
11711;SDS011;5912;51.034;6.984;2023-11-21T05:06:47;13.95;;;8.15;;
11711;SDS011;5912;51.034;6.984;2023-11-21T05:09:12;9.98;;;7.43;;
11711;SDS011;5912;51.034;6.984;2023-11-21T05:11:41;13.07;;;7.57;;
11711;SDS011;5912;51.034;6.984;2023-11-21T05:14:06;14.90;;;8.80;;
11711;SDS011;5912;51.034;6.984;2023-11-21T05:16:32;12.63;;;8.00;;
11711;SDS011;5912;51.034;6.984;2023-11-21T05:18:58;11.70;;;7.60;;
11711;SDS011;5912;51.034;6.984;2023-11-21T05:21:28;11.48;;;7.65;;
11711;SDS011;5912;51.034;6.984;2023-11-21T05:23:55;14.45;;;9.32;;
11711;SDS011;5912;51.034;6.984;2023-11-21T05:26:20;14.23;;;8.38;;
11711;SDS011;5912;51.034;6.984;2023-11-21T05:28:45;13.73;;;8.65;;
11711;SDS011;5912;51.034;6.984;2023-11-21T05:31:11;13.70;;;8.18;;
11711;SDS011;5912;51.034;6.984;2023-11-21T05:33:36;11.98;;;8.15;;
11711;SDS011;5912;51.034;6.984;2023-11-21T05:36:02;11.10;;;7.95;;
11711;SDS011;5912;51.034;6.984;2023-11-21T05:38:27;14.75;;;8.70;;
11711;SDS011;5912;51.034;6.984;2023-11-21T05:40:53;15.18;;;9.13;;
11711;SDS011;5912;51.034;6.984;2023-11-21T05:43:19;13.65;;;9.15;;
11711;SDS011;5912;51.034;6.984;2023-11-21T05:45:44;13.77;;;9.77;;
11711;SDS011;5912;51.034;6.984;2023-11-21T05:48:10;12.65;;;9.10;;
11711;SDS011;5912;51.034;6.984;2023-11-21T05:50:35;16.50;;;9.70;;
11711;SDS011;5912;51.034;6.984;2023-11-21T05:53:02;14.10;;;10.25;;
11711;SDS011;5912;51.034;6.984;2023-11-21T05:55:28;18.20;;;11.52;;
11711;SDS011;5912;51.034;6.984;2023-11-21T05:57:53;13.90;;;10.00;;
11711;SDS011;5912;51.034;6.984;2023-11-21T06:00:19;14.55;;;10.20;;
11711;SDS011;5912;51.034;6.984;2023-11-21T06:02:47;16.70;;;11.23;;
11711;SDS011;5912;51.034;6.984;2023-11-21T06:05:15;15.40;;;11.43;;
11711;SDS011;5912;51.034;6.984;2023-11-21T06:07:40;15.07;;;10.73;;
11711;SDS011;5912;51.034;6.984;2023-11-21T06:10:06;15.68;;;11.70;;
11711;SDS011;5912;51.034;6.984;2023-11-21T06:12:36;19.85;;;12.45;;
11711;SDS011;5912;51.034;6.984;2023-11-21T06:15:02;18.30;;;12.15;;
11711;SDS011;5912;51.034;6.984;2023-11-21T06:17:30;19.65;;;12.98;;
11711;SDS011;5912;51.034;6.984;2023-11-21T06:20:11;21.30;;;12.95;;
11711;SDS011;5912;51.034;6.984;2023-11-21T06:22:43;19.65;;;12.68;;
11711;SDS011;5912;51.034;6.984;2023-11-21T06:25:09;19.70;;;12.93;;
11711;SDS011;5912;51.034;6.984;2023-11-21T06:27:38;19.67;;;12.45;;
11711;SDS011;5912;51.034;6.984;2023-11-21T06:30:05;18.42;;;11.90;;
11711;SDS011;5912;51.034;6.984;2023-11-21T06:32:31;17.60;;;11.52;;
11711;SDS011;5912;51.034;6.984;2023-11-21T06:34:57;19.73;;;12.52;;
11711;SDS011;5912;51.034;6.984;2023-11-21T06:37:24;17.73;;;11.70;;
11711;SDS011;5912;51.034;6.984;2023-11-21T06:39:51;17.35;;;11.38;;
11711;SDS011;5912;51.034;6.984;2023-11-21T06:42:17;24.73;;;13.68;;
11711;SDS011;5912;51.034;6.984;2023-11-21T06:44:44;20.10;;;13.45;;
11711;SDS011;5912;51.034;6.984;2023-11-21T06:47:10;18.90;;;12.13;;
11711;SDS011;5912;51.034;6.984;2023-11-21T06:49:51;17.80;;;11.88;;
11711;SDS011;5912;51.034;6.984;2023-11-21T06:52:18;21.27;;;13.95;;
11711;SDS011;5912;51.034;6.984;2023-11-21T06:54:43;21.50;;;13.02;;
11711;SDS011;5912;51.034;6.984;2023-11-21T06:57:10;18.80;;;12.38;;
11711;SDS011;5912;51.034;6.984;2023-11-21T06:59:35;16.25;;;11.70;;
11711;SDS011;5912;51.034;6.984;2023-11-21T07:02:01;19.65;;;12.10;;
11711;SDS011;5912;51.034;6.984;2023-11-21T07:04:26;19.33;;;11.40;;
11711;SDS011;5912;51.034;6.984;2023-11-21T07:06:53;19.70;;;12.85;;
11711;SDS011;5912;51.034;6.984;2023-11-21T07:11:53;17.50;;;12.25;;
11711;SDS011;5912;51.034;6.984;2023-11-21T07:14:19;23.30;;;13.27;;
11711;SDS011;5912;51.034;6.984;2023-11-21T07:16:44;20.60;;;13.50;;
11711;SDS011;5912;51.034;6.984;2023-11-21T07:19:10;18.98;;;13.20;;
11711;SDS011;5912;51.034;6.984;2023-11-21T07:21:37;21.52;;;13.40;;
11711;SDS011;5912;51.034;6.984;2023-11-21T07:24:03;20.80;;;13.80;;
11711;SDS011;5912;51.034;6.984;2023-11-21T07:26:29;20.27;;;12.50;;
11711;SDS011;5912;51.034;6.984;2023-11-21T07:28:55;24.60;;;14.55;;
11711;SDS011;5912;51.034;6.984;2023-11-21T07:31:21;27.17;;;14.55;;
11711;SDS011;5912;51.034;6.984;2023-11-21T07:33:46;23.98;;;14.38;;
11711;SDS011;5912;51.034;6.984;2023-11-21T07:36:12;23.73;;;14.77;;
11711;SDS011;5912;51.034;6.984;2023-11-21T07:38:38;22.65;;;15.13;;
11711;SDS011;5912;51.034;6.984;2023-11-21T07:41:04;23.65;;;14.13;;
11711;SDS011;5912;51.034;6.984;2023-11-21T07:43:32;21.83;;;14.52;;
11711;SDS011;5912;51.034;6.984;2023-11-21T07:46:00;22.60;;;15.55;;
11711;SDS011;5912;51.034;6.984;2023-11-21T07:48:31;21.60;;;13.85;;
11711;SDS011;5912;51.034;6.984;2023-11-21T07:50:58;21.65;;;13.13;;
11711;SDS011;5912;51.034;6.984;2023-11-21T07:53:26;23.10;;;14.88;;
11711;SDS011;5912;51.034;6.984;2023-11-21T07:55:53;20.75;;;14.27;;
11711;SDS011;5912;51.034;6.984;2023-11-21T07:58:19;22.67;;;13.70;;
11711;SDS011;5912;51.034;6.984;2023-11-21T08:00:44;24.98;;;13.95;;
11711;SDS011;5912;51.034;6.984;2023-11-21T08:03:10;21.73;;;14.15;;
11711;SDS011;5912;51.034;6.984;2023-11-21T08:05:36;26.77;;;14.75;;
11711;SDS011;5912;51.034;6.984;2023-11-21T08:08:02;22.50;;;14.02;;
11711;SDS011;5912;51.034;6.984;2023-11-21T08:10:27;21.67;;;14.88;;
11711;SDS011;5912;51.034;6.984;2023-11-21T08:12:52;23.05;;;14.02;;
11711;SDS011;5912;51.034;6.984;2023-11-21T08:15:18;23.48;;;14.57;;
11711;SDS011;5912;51.034;6.984;2023-11-21T08:17:44;24.75;;;14.98;;
11711;SDS011;5912;51.034;6.984;2023-11-21T08:20:09;27.15;;;14.88;;
11711;SDS011;5912;51.034;6.984;2023-11-21T08:22:35;30.27;;;16.50;;
11711;SDS011;5912;51.034;6.984;2023-11-21T08:25:01;26.02;;;15.60;;
11711;SDS011;5912;51.034;6.984;2023-11-21T08:27:29;28.23;;;15.63;;
11711;SDS011;5912;51.034;6.984;2023-11-21T08:29:54;27.48;;;15.35;;
11711;SDS011;5912;51.034;6.984;2023-11-21T08:32:21;24.17;;;14.85;;
11711;SDS011;5912;51.034;6.984;2023-11-21T08:34:46;24.77;;;14.82;;
11711;SDS011;5912;51.034;6.984;2023-11-21T08:37:15;26.98;;;14.90;;
11711;SDS011;5912;51.034;6.984;2023-11-21T08:39:41;27.92;;;15.73;;
11711;SDS011;5912;51.034;6.984;2023-11-21T08:42:07;28.52;;;16.30;;
11711;SDS011;5912;51.034;6.984;2023-11-21T08:44:33;30.23;;;16.35;;
11711;SDS011;5912;51.034;6.984;2023-11-21T08:46:58;33.78;;;17.20;;
11711;SDS011;5912;51.034;6.984;2023-11-21T08:49:23;36.67;;;17.50;;
11711;SDS011;5912;51.034;6.984;2023-11-21T08:51:51;32.63;;;16.45;;
11711;SDS011;5912;51.034;6.984;2023-11-21T08:54:16;34.50;;;16.65;;
11711;SDS011;5912;51.034;6.984;2023-11-21T08:56:43;31.42;;;15.65;;
11711;SDS011;5912;51.034;6.984;2023-11-21T08:59:08;33.30;;;17.42;;
11711;SDS011;5912;51.034;6.984;2023-11-21T09:01:33;30.38;;;16.80;;
11711;SDS011;5912;51.034;6.984;2023-11-21T09:03:59;30.85;;;16.88;;
11711;SDS011;5912;51.034;6.984;2023-11-21T09:06:24;31.73;;;17.08;;
11711;SDS011;5912;51.034;6.984;2023-11-21T09:08:49;27.88;;;14.18;;
11711;SDS011;5912;51.034;6.984;2023-11-21T09:11:15;26.13;;;16.02;;
11711;SDS011;5912;51.034;6.984;2023-11-21T09:13:41;30.00;;;16.33;;
11711;SDS011;5912;51.034;6.984;2023-11-21T09:16:06;26.85;;;15.75;;
11711;SDS011;5912;51.034;6.984;2023-11-21T09:18:32;30.02;;;16.10;;
11711;SDS011;5912;51.034;6.984;2023-11-21T09:20:57;28.85;;;16.80;;
11711;SDS011;5912;51.034;6.984;2023-11-21T09:23:23;30.75;;;16.90;;
11711;SDS011;5912;51.034;6.984;2023-11-21T09:25:49;30.05;;;15.85;;
11711;SDS011;5912;51.034;6.984;2023-11-21T09:28:15;34.92;;;18.20;;
11711;SDS011;5912;51.034;6.984;2023-11-21T09:30:42;35.72;;;18.55;;
11711;SDS011;5912;51.034;6.984;2023-11-21T09:33:08;35.30;;;18.25;;
11711;SDS011;5912;51.034;6.984;2023-11-21T09:35:36;35.00;;;19.67;;
11711;SDS011;5912;51.034;6.984;2023-11-21T09:38:03;45.70;;;22.02;;
11711;SDS011;5912;51.034;6.984;2023-11-21T09:40:30;40.45;;;20.63;;
11711;SDS011;5912;51.034;6.984;2023-11-21T09:42:56;40.40;;;20.55;;
11711;SDS011;5912;51.034;6.984;2023-11-21T09:45:27;41.13;;;22.08;;
11711;SDS011;5912;51.034;6.984;2023-11-21T09:47:54;32.95;;;19.77;;
11711;SDS011;5912;51.034;6.984;2023-11-21T09:50:20;36.13;;;20.85;;
11711;SDS011;5912;51.034;6.984;2023-11-21T09:55:27;35.55;;;21.05;;
11711;SDS011;5912;51.034;6.984;2023-11-21T09:58:00;34.67;;;18.73;;
11711;SDS011;5912;51.034;6.984;2023-11-21T10:00:27;35.20;;;19.50;;
11711;SDS011;5912;51.034;6.984;2023-11-21T10:03:12;31.92;;;18.80;;
11711;SDS011;5912;51.034;6.984;2023-11-21T10:05:39;36.70;;;20.02;;
11711;SDS011;5912;51.034;6.984;2023-11-21T10:08:10;33.08;;;17.73;;
11711;SDS011;5912;51.034;6.984;2023-11-21T10:10:45;30.92;;;18.23;;
11711;SDS011;5912;51.034;6.984;2023-11-21T10:16:37;28.30;;;15.70;;
11711;SDS011;5912;51.034;6.984;2023-11-21T10:19:04;32.05;;;17.17;;
11711;SDS011;5912;51.034;6.984;2023-11-21T10:21:32;29.63;;;17.30;;
11711;SDS011;5912;51.034;6.984;2023-11-21T10:23:58;28.08;;;14.70;;
11711;SDS011;5912;51.034;6.984;2023-11-21T10:26:24;29.58;;;16.70;;
11711;SDS011;5912;51.034;6.984;2023-11-21T10:29:01;27.10;;;15.43;;
11711;SDS011;5912;51.034;6.984;2023-11-21T10:31:30;23.05;;;14.55;;
11711;SDS011;5912;51.034;6.984;2023-11-21T10:34:14;28.00;;;15.80;;
11711;SDS011;5912;51.034;6.984;2023-11-21T10:36:41;25.13;;;15.23;;
11711;SDS011;5912;51.034;6.984;2023-11-21T10:39:07;20.98;;;13.65;;
11711;SDS011;5912;51.034;6.984;2023-11-21T10:41:32;26.02;;;15.35;;
11711;SDS011;5912;51.034;6.984;2023-11-21T10:43:58;27.73;;;15.38;;
11711;SDS011;5912;51.034;6.984;2023-11-21T10:46:23;24.05;;;14.23;;
11711;SDS011;5912;51.034;6.984;2023-11-21T10:48:54;26.40;;;15.05;;
11711;SDS011;5912;51.034;6.984;2023-11-21T10:51:22;21.52;;;13.95;;
11711;SDS011;5912;51.034;6.984;2023-11-21T10:53:49;27.65;;;14.63;;
11711;SDS011;5912;51.034;6.984;2023-11-21T10:56:16;26.40;;;15.15;;
11711;SDS011;5912;51.034;6.984;2023-11-21T10:58:45;27.10;;;16.15;;
11711;SDS011;5912;51.034;6.984;2023-11-21T11:01:10;25.35;;;14.60;;
11711;SDS011;5912;51.034;6.984;2023-11-21T11:03:37;30.42;;;15.50;;
11711;SDS011;5912;51.034;6.984;2023-11-21T11:06:04;25.67;;;15.57;;
11711;SDS011;5912;51.034;6.984;2023-11-21T11:08:32;24.40;;;15.70;;
11711;SDS011;5912;51.034;6.984;2023-11-21T11:11:00;29.58;;;17.00;;
11711;SDS011;5912;51.034;6.984;2023-11-21T11:13:25;29.67;;;16.13;;
11711;SDS011;5912;51.034;6.984;2023-11-21T11:15:51;32.05;;;17.02;;
11711;SDS011;5912;51.034;6.984;2023-11-21T11:18:25;31.55;;;17.08;;
11711;SDS011;5912;51.034;6.984;2023-11-21T11:20:50;28.13;;;16.42;;
11711;SDS011;5912;51.034;6.984;2023-11-21T11:26:06;29.30;;;15.95;;
11711;SDS011;5912;51.034;6.984;2023-11-21T11:28:38;26.33;;;14.02;;
11711;SDS011;5912;51.034;6.984;2023-11-21T11:31:21;27.20;;;15.15;;
11711;SDS011;5912;51.034;6.984;2023-11-21T11:34:13;27.90;;;16.10;;
11711;SDS011;5912;51.034;6.984;2023-11-21T11:36:49;24.23;;;14.90;;
11711;SDS011;5912;51.034;6.984;2023-11-21T11:39:31;30.42;;;16.58;;
11711;SDS011;5912;51.034;6.984;2023-11-21T11:42:02;26.80;;;14.90;;
11711;SDS011;5912;51.034;6.984;2023-11-21T11:55:02;28.58;;;15.55;;
11711;SDS011;5912;51.034;6.984;2023-11-21T11:57:33;26.38;;;15.88;;
11711;SDS011;5912;51.034;6.984;2023-11-21T12:02:40;25.10;;;15.05;;
11711;SDS011;5912;51.034;6.984;2023-11-21T12:05:13;23.88;;;15.15;;
11711;SDS011;5912;51.034;6.984;2023-11-21T12:07:47;27.98;;;15.77;;
11711;SDS011;5912;51.034;6.984;2023-11-21T12:10:23;27.05;;;15.75;;
11711;SDS011;5912;51.034;6.984;2023-11-21T12:12:54;25.85;;;14.80;;
11711;SDS011;5912;51.034;6.984;2023-11-21T12:15:20;25.50;;;14.80;;
11711;SDS011;5912;51.034;6.984;2023-11-21T12:17:46;30.95;;;16.58;;
11711;SDS011;5912;51.034;6.984;2023-11-21T12:20:14;32.10;;;16.67;;
11711;SDS011;5912;51.034;6.984;2023-11-21T12:23:00;31.02;;;16.55;;
11711;SDS011;5912;51.034;6.984;2023-11-21T12:25:31;33.38;;;16.55;;
11711;SDS011;5912;51.034;6.984;2023-11-21T12:27:58;34.00;;;16.98;;
11711;SDS011;5912;51.034;6.984;2023-11-21T12:30:25;31.50;;;16.38;;
11711;SDS011;5912;51.034;6.984;2023-11-21T12:32:54;30.77;;;17.05;;
11711;SDS011;5912;51.034;6.984;2023-11-21T12:35:33;33.45;;;16.77;;
11711;SDS011;5912;51.034;6.984;2023-11-21T12:38:00;29.02;;;15.82;;
11711;SDS011;5912;51.034;6.984;2023-11-21T12:40:34;30.73;;;15.05;;
11711;SDS011;5912;51.034;6.984;2023-11-21T12:42:59;26.35;;;15.13;;
11711;SDS011;5912;51.034;6.984;2023-11-21T12:45:26;31.83;;;16.90;;
11711;SDS011;5912;51.034;6.984;2023-11-21T12:50:25;33.45;;;16.40;;
11711;SDS011;5912;51.034;6.984;2023-11-21T12:52:54;29.52;;;15.80;;
11711;SDS011;5912;51.034;6.984;2023-11-21T12:55:23;27.77;;;14.27;;
11711;SDS011;5912;51.034;6.984;2023-11-21T12:57:55;29.05;;;15.60;;
11711;SDS011;5912;51.034;6.984;2023-11-21T13:00:27;27.35;;;14.98;;
11711;SDS011;5912;51.034;6.984;2023-11-21T13:02:55;30.52;;;15.85;;
11711;SDS011;5912;51.034;6.984;2023-11-21T13:05:25;30.58;;;16.08;;
11711;SDS011;5912;51.034;6.984;2023-11-21T13:07:51;29.50;;;15.20;;
11711;SDS011;5912;51.034;6.984;2023-11-21T13:10:19;26.27;;;14.70;;
11711;SDS011;5912;51.034;6.984;2023-11-21T13:12:52;41.45;;;16.55;;
11711;SDS011;5912;51.034;6.984;2023-11-21T13:15:18;28.85;;;14.57;;
11711;SDS011;5912;51.034;6.984;2023-11-21T13:17:44;27.25;;;15.20;;
11711;SDS011;5912;51.034;6.984;2023-11-21T13:20:11;28.77;;;15.45;;
11711;SDS011;5912;51.034;6.984;2023-11-21T13:23:06;25.02;;;14.75;;
11711;SDS011;5912;51.034;6.984;2023-11-21T13:25:32;28.30;;;15.07;;
11711;SDS011;5912;51.034;6.984;2023-11-21T13:27:58;25.70;;;14.07;;
11711;SDS011;5912;51.034;6.984;2023-11-21T13:30:24;26.70;;;14.88;;
11711;SDS011;5912;51.034;6.984;2023-11-21T13:32:58;23.40;;;14.75;;
11711;SDS011;5912;51.034;6.984;2023-11-21T13:35:30;25.58;;;13.60;;
11711;SDS011;5912;51.034;6.984;2023-11-21T13:38:04;29.65;;;15.15;;
11711;SDS011;5912;51.034;6.984;2023-11-21T13:40:31;28.75;;;13.80;;
11711;SDS011;5912;51.034;6.984;2023-11-21T13:42:59;26.92;;;14.02;;
11711;SDS011;5912;51.034;6.984;2023-11-21T13:45:29;26.30;;;14.10;;
11711;SDS011;5912;51.034;6.984;2023-11-21T13:47:57;26.98;;;14.40;;
11711;SDS011;5912;51.034;6.984;2023-11-21T13:50:26;26.90;;;14.20;;
11711;SDS011;5912;51.034;6.984;2023-11-21T13:52:58;28.95;;;14.38;;
11711;SDS011;5912;51.034;6.984;2023-11-21T13:55:28;27.15;;;13.85;;
11711;SDS011;5912;51.034;6.984;2023-11-21T13:57:53;28.92;;;14.85;;
11711;SDS011;5912;51.034;6.984;2023-11-21T14:00:18;26.55;;;15.15;;
11711;SDS011;5912;51.034;6.984;2023-11-21T14:03:02;31.20;;;15.55;;
11711;SDS011;5912;51.034;6.984;2023-11-21T14:05:33;27.25;;;15.63;;
11711;SDS011;5912;51.034;6.984;2023-11-21T14:07:59;30.02;;;15.75;;
11711;SDS011;5912;51.034;6.984;2023-11-21T14:10:30;28.63;;;16.55;;
11711;SDS011;5912;51.034;6.984;2023-11-21T14:13:08;24.30;;;14.80;;
11711;SDS011;5912;51.034;6.984;2023-11-21T14:15:35;36.40;;;19.08;;
11711;SDS011;5912;51.034;6.984;2023-11-21T14:18:06;33.63;;;17.00;;
11711;SDS011;5912;51.034;6.984;2023-11-21T14:20:41;34.90;;;17.13;;
11711;SDS011;5912;51.034;6.984;2023-11-21T14:23:07;32.10;;;16.85;;
11711;SDS011;5912;51.034;6.984;2023-11-21T14:25:36;28.92;;;16.38;;
11711;SDS011;5912;51.034;6.984;2023-11-21T14:28:03;38.10;;;16.92;;
11711;SDS011;5912;51.034;6.984;2023-11-21T14:30:29;32.58;;;17.83;;
11711;SDS011;5912;51.034;6.984;2023-11-21T14:32:57;33.10;;;17.92;;
11711;SDS011;5912;51.034;6.984;2023-11-21T14:35:23;32.95;;;16.58;;
11711;SDS011;5912;51.034;6.984;2023-11-21T14:37:48;36.60;;;17.80;;
11711;SDS011;5912;51.034;6.984;2023-11-21T14:40:14;41.70;;;18.73;;
11711;SDS011;5912;51.034;6.984;2023-11-21T14:42:41;33.58;;;16.95;;
11711;SDS011;5912;51.034;6.984;2023-11-21T14:45:07;32.90;;;16.63;;
11711;SDS011;5912;51.034;6.984;2023-11-21T14:47:37;35.45;;;16.92;;
11711;SDS011;5912;51.034;6.984;2023-11-21T14:50:03;31.25;;;16.50;;
11711;SDS011;5912;51.034;6.984;2023-11-21T14:52:48;34.00;;;16.73;;
11711;SDS011;5912;51.034;6.984;2023-11-21T14:55:24;42.78;;;17.52;;
11711;SDS011;5912;51.034;6.984;2023-11-21T14:57:57;30.55;;;18.08;;
11711;SDS011;5912;51.034;6.984;2023-11-21T15:00:27;35.17;;;17.63;;
11711;SDS011;5912;51.034;6.984;2023-11-21T15:03:07;36.50;;;18.17;;
11711;SDS011;5912;51.034;6.984;2023-11-21T15:05:34;39.90;;;18.35;;
11711;SDS011;5912;51.034;6.984;2023-11-21T15:08:00;37.67;;;18.98;;
11711;SDS011;5912;51.034;6.984;2023-11-21T15:10:45;35.20;;;17.02;;